sensor_id;sensor_type;location;lat;lon;timestamp;P1;durP1;ratioP1;P2;durP2;ratioP2
17858;SDS011;35426;30.698;104.050;2023-09-30T00:00:54;47.17;;;25.60;;
17858;SDS011;35426;30.698;104.050;2023-09-30T00:03:28;47.50;;;25.43;;
17858;SDS011;35426;30.698;104.050;2023-09-30T00:06:03;45.27;;;26.70;;
17858;SDS011;35426;30.698;104.050;2023-09-30T00:08:37;41.83;;;24.50;;
17858;SDS011;35426;30.698;104.050;2023-09-30T00:11:15;47.67;;;25.30;;
17858;SDS011;35426;30.698;104.050;2023-09-30T00:13:51;43.90;;;25.33;;
17858;SDS011;35426;30.698;104.050;2023-09-30T00:16:26;44.73;;;26.00;;
17858;SDS011;35426;30.698;104.050;2023-09-30T00:19:00;45.63;;;26.30;;
17858;SDS011;35426;30.698;104.050;2023-09-30T00:21:34;48.77;;;25.67;;
17858;SDS011;35426;30.698;104.050;2023-09-30T00:24:09;45.60;;;25.90;;
17858;SDS011;35426;30.698;104.050;2023-09-30T00:26:43;48.50;;;27.00;;
17858;SDS011;35426;30.698;104.050;2023-09-30T00:29:19;50.23;;;27.53;;
17858;SDS011;35426;30.698;104.050;2023-09-30T00:31:53;47.53;;;27.93;;
17858;SDS011;35426;30.698;104.050;2023-09-30T00:34:27;50.13;;;25.83;;
17858;SDS011;35426;30.698;104.050;2023-09-30T00:37:04;44.23;;;27.00;;
17858;SDS011;35426;30.698;104.050;2023-09-30T00:39:39;47.00;;;27.43;;
17858;SDS011;35426;30.698;104.050;2023-09-30T00:42:14;46.33;;;25.43;;
17858;SDS011;35426;30.698;104.050;2023-09-30T00:44:52;41.07;;;24.30;;
17858;SDS011;35426;30.698;104.050;2023-09-30T00:47:26;46.83;;;25.93;;
17858;SDS011;35426;30.698;104.050;2023-09-30T00:50:02;40.87;;;24.23;;
17858;SDS011;35426;30.698;104.050;2023-09-30T00:52:40;40.50;;;23.63;;
17858;SDS011;35426;30.698;104.050;2023-09-30T00:55:15;44.60;;;25.20;;
17858;SDS011;35426;30.698;104.050;2023-09-30T00:57:49;44.60;;;25.13;;
17858;SDS011;35426;30.698;104.050;2023-09-30T01:00:26;42.23;;;25.13;;
17858;SDS011;35426;30.698;104.050;2023-09-30T01:03:00;38.33;;;23.67;;
17858;SDS011;35426;30.698;104.050;2023-09-30T01:05:34;37.77;;;24.20;;
17858;SDS011;35426;30.698;104.050;2023-09-30T01:08:09;35.80;;;25.00;;
17858;SDS011;35426;30.698;104.050;2023-09-30T01:10:43;41.50;;;24.20;;
17858;SDS011;35426;30.698;104.050;2023-09-30T01:13:18;46.53;;;24.37;;
17858;SDS011;35426;30.698;104.050;2023-09-30T01:15:55;38.50;;;23.30;;
17858;SDS011;35426;30.698;104.050;2023-09-30T01:18:28;38.33;;;22.73;;
17858;SDS011;35426;30.698;104.050;2023-09-30T01:21:04;39.20;;;22.43;;
17858;SDS011;35426;30.698;104.050;2023-09-30T01:23:43;40.60;;;23.03;;
17858;SDS011;35426;30.698;104.050;2023-09-30T01:26:18;45.03;;;22.80;;
17858;SDS011;35426;30.698;104.050;2023-09-30T01:28:53;41.70;;;22.77;;
17858;SDS011;35426;30.698;104.050;2023-09-30T01:31:27;36.93;;;23.13;;
17858;SDS011;35426;30.698;104.050;2023-09-30T01:34:02;36.63;;;21.50;;
17858;SDS011;35426;30.698;104.050;2023-09-30T01:36:37;34.97;;;22.00;;
17858;SDS011;35426;30.698;104.050;2023-09-30T01:39:13;38.40;;;21.87;;
17858;SDS011;35426;30.698;104.050;2023-09-30T01:41:47;38.03;;;22.30;;
17858;SDS011;35426;30.698;104.050;2023-09-30T01:44:21;34.77;;;20.57;;
17858;SDS011;35426;30.698;104.050;2023-09-30T01:46:56;35.50;;;20.20;;
17858;SDS011;35426;30.698;104.050;2023-09-30T01:49:31;37.10;;;20.30;;
17858;SDS011;35426;30.698;104.050;2023-09-30T01:52:05;34.20;;;20.17;;
17858;SDS011;35426;30.698;104.050;2023-09-30T01:54:42;33.13;;;21.13;;
17858;SDS011;35426;30.698;104.050;2023-09-30T01:57:16;36.13;;;20.50;;
17858;SDS011;35426;30.698;104.050;2023-09-30T01:59:50;35.33;;;19.50;;
17858;SDS011;35426;30.698;104.050;2023-09-30T02:02:24;32.43;;;20.07;;
17858;SDS011;35426;30.698;104.050;2023-09-30T02:04:59;31.57;;;19.27;;
17858;SDS011;35426;30.698;104.050;2023-09-30T02:07:33;40.40;;;19.87;;
17858;SDS011;35426;30.698;104.050;2023-09-30T02:10:10;37.10;;;20.40;;
17858;SDS011;35426;30.698;104.050;2023-09-30T02:12:44;33.00;;;18.47;;
17858;SDS011;35426;30.698;104.050;2023-09-30T02:15:19;37.90;;;20.63;;
17858;SDS011;35426;30.698;104.050;2023-09-30T02:17:53;34.40;;;19.83;;
17858;SDS011;35426;30.698;104.050;2023-09-30T02:20:30;31.80;;;21.07;;
17858;SDS011;35426;30.698;104.050;2023-09-30T02:23:05;35.10;;;20.47;;
17858;SDS011;35426;30.698;104.050;2023-09-30T02:25:42;35.65;;;19.95;;
17858;SDS011;35426;30.698;104.050;2023-09-30T02:28:16;32.93;;;20.27;;
17858;SDS011;35426;30.698;104.050;2023-09-30T02:30:50;38.67;;;20.33;;
17858;SDS011;35426;30.698;104.050;2023-09-30T02:33:24;31.30;;;19.45;;
17858;SDS011;35426;30.698;104.050;2023-09-30T02:36:00;36.43;;;20.33;;
17858;SDS011;35426;30.698;104.050;2023-09-30T02:38:35;34.80;;;18.92;;
17858;SDS011;35426;30.698;104.050;2023-09-30T02:41:11;38.33;;;19.77;;
17858;SDS011;35426;30.698;104.050;2023-09-30T02:43:46;33.00;;;18.95;;
17858;SDS011;35426;30.698;104.050;2023-09-30T02:46:23;34.58;;;19.30;;
17858;SDS011;35426;30.698;104.050;2023-09-30T02:49:00;36.60;;;19.05;;
17858;SDS011;35426;30.698;104.050;2023-09-30T02:51:34;30.55;;;17.95;;
17858;SDS011;35426;30.698;104.050;2023-09-30T02:54:08;28.60;;;17.80;;
17858;SDS011;35426;30.698;104.050;2023-09-30T02:56:47;32.60;;;18.17;;
17858;SDS011;35426;30.698;104.050;2023-09-30T02:59:22;28.45;;;17.10;;
17858;SDS011;35426;30.698;104.050;2023-09-30T03:01:58;31.38;;;16.83;;
17858;SDS011;35426;30.698;104.050;2023-09-30T03:04:33;32.70;;;17.40;;
17858;SDS011;35426;30.698;104.050;2023-09-30T03:07:07;28.58;;;16.30;;
17858;SDS011;35426;30.698;104.050;2023-09-30T03:09:41;28.75;;;16.08;;
17858;SDS011;35426;30.698;104.050;2023-09-30T03:12:19;32.67;;;16.25;;
17858;SDS011;35426;30.698;104.050;2023-09-30T03:14:53;25.63;;;16.02;;
17858;SDS011;35426;30.698;104.050;2023-09-30T03:17:28;28.73;;;16.58;;
17858;SDS011;35426;30.698;104.050;2023-09-30T03:20:02;29.67;;;18.00;;
17858;SDS011;35426;30.698;104.050;2023-09-30T03:22:41;35.22;;;17.67;;
17858;SDS011;35426;30.698;104.050;2023-09-30T03:25:17;28.98;;;17.27;;
17858;SDS011;35426;30.698;104.050;2023-09-30T03:27:54;29.92;;;17.85;;
17858;SDS011;35426;30.698;104.050;2023-09-30T03:30:29;25.52;;;17.67;;
17858;SDS011;35426;30.698;104.050;2023-09-30T03:33:04;31.67;;;18.23;;
17858;SDS011;35426;30.698;104.050;2023-09-30T03:35:40;30.27;;;17.17;;
17858;SDS011;35426;30.698;104.050;2023-09-30T03:38:14;30.85;;;18.17;;
17858;SDS011;35426;30.698;104.050;2023-09-30T03:40:50;30.77;;;19.15;;
17858;SDS011;35426;30.698;104.050;2023-09-30T03:43:27;29.55;;;19.50;;
17858;SDS011;35426;30.698;104.050;2023-09-30T03:46:04;27.50;;;18.55;;
17858;SDS011;35426;30.698;104.050;2023-09-30T03:48:38;33.88;;;20.20;;
17858;SDS011;35426;30.698;104.050;2023-09-30T03:51:12;34.17;;;18.42;;
17858;SDS011;35426;30.698;104.050;2023-09-30T03:53:47;29.70;;;17.58;;
17858;SDS011;35426;30.698;104.050;2023-09-30T03:56:22;26.30;;;18.13;;
17858;SDS011;35426;30.698;104.050;2023-09-30T03:58:58;33.22;;;19.10;;
17858;SDS011;35426;30.698;104.050;2023-09-30T04:01:32;27.60;;;16.98;;
17858;SDS011;35426;30.698;104.050;2023-09-30T04:04:09;31.20;;;18.00;;
17858;SDS011;35426;30.698;104.050;2023-09-30T04:06:44;26.25;;;17.17;;
17858;SDS011;35426;30.698;104.050;2023-09-30T04:09:18;35.60;;;20.90;;
17858;SDS011;35426;30.698;104.050;2023-09-30T04:11:52;29.48;;;18.63;;
17858;SDS011;35426;30.698;104.050;2023-09-30T04:14:29;33.40;;;19.33;;
17858;SDS011;35426;30.698;104.050;2023-09-30T04:17:04;37.58;;;20.45;;
17858;SDS011;35426;30.698;104.050;2023-09-30T04:19:40;35.72;;;19.65;;
17858;SDS011;35426;30.698;104.050;2023-09-30T04:22:14;31.35;;;19.80;;
17858;SDS011;35426;30.698;104.050;2023-09-30T04:24:48;27.42;;;19.00;;
17858;SDS011;35426;30.698;104.050;2023-09-30T04:27:22;31.10;;;20.80;;
17858;SDS011;35426;30.698;104.050;2023-09-30T04:29:59;38.45;;;22.00;;
17858;SDS011;35426;30.698;104.050;2023-09-30T04:32:39;35.03;;;19.77;;
17858;SDS011;35426;30.698;104.050;2023-09-30T04:35:14;33.60;;;20.02;;
17858;SDS011;35426;30.698;104.050;2023-09-30T04:37:49;30.63;;;20.23;;
17858;SDS011;35426;30.698;104.050;2023-09-30T04:40:24;34.95;;;19.98;;
17858;SDS011;35426;30.698;104.050;2023-09-30T04:42:59;37.67;;;19.85;;
17858;SDS011;35426;30.698;104.050;2023-09-30T04:45:35;36.45;;;22.27;;
17858;SDS011;35426;30.698;104.050;2023-09-30T04:48:09;30.30;;;18.73;;
17858;SDS011;35426;30.698;104.050;2023-09-30T04:50:43;33.40;;;19.33;;
17858;SDS011;35426;30.698;104.050;2023-09-30T04:53:18;31.50;;;20.00;;
17858;SDS011;35426;30.698;104.050;2023-09-30T04:55:52;29.20;;;20.10;;
17858;SDS011;35426;30.698;104.050;2023-09-30T04:58:28;27.95;;;19.38;;
17858;SDS011;35426;30.698;104.050;2023-09-30T05:01:04;32.65;;;18.85;;
17858;SDS011;35426;30.698;104.050;2023-09-30T05:03:39;30.42;;;20.40;;
17858;SDS011;35426;30.698;104.050;2023-09-30T05:06:13;37.58;;;21.40;;
17858;SDS011;35426;30.698;104.050;2023-09-30T05:08:48;35.38;;;21.33;;
17858;SDS011;35426;30.698;104.050;2023-09-30T05:11:24;36.00;;;22.80;;
17858;SDS011;35426;30.698;104.050;2023-09-30T05:13:59;34.80;;;21.25;;
17858;SDS011;35426;30.698;104.050;2023-09-30T05:16:36;35.83;;;21.38;;
17858;SDS011;35426;30.698;104.050;2023-09-30T05:19:13;37.83;;;22.08;;
17858;SDS011;35426;30.698;104.050;2023-09-30T05:21:47;35.80;;;21.77;;
17858;SDS011;35426;30.698;104.050;2023-09-30T05:24:21;30.27;;;19.05;;
17858;SDS011;35426;30.698;104.050;2023-09-30T05:26:56;30.52;;;19.23;;
17858;SDS011;35426;30.698;104.050;2023-09-30T05:29:33;32.83;;;20.73;;
17858;SDS011;35426;30.698;104.050;2023-09-30T05:32:09;32.75;;;20.67;;
17858;SDS011;35426;30.698;104.050;2023-09-30T05:34:44;40.28;;;23.17;;
17858;SDS011;35426;30.698;104.050;2023-09-30T05:37:18;35.33;;;20.35;;
17858;SDS011;35426;30.698;104.050;2023-09-30T05:39:53;39.72;;;22.15;;
17858;SDS011;35426;30.698;104.050;2023-09-30T05:42:27;34.55;;;20.67;;
17858;SDS011;35426;30.698;104.050;2023-09-30T05:45:01;36.65;;;21.85;;
17858;SDS011;35426;30.698;104.050;2023-09-30T05:47:40;30.13;;;20.85;;
17858;SDS011;35426;30.698;104.050;2023-09-30T05:50:17;31.67;;;20.80;;
17858;SDS011;35426;30.698;104.050;2023-09-30T05:52:56;32.42;;;20.25;;
17858;SDS011;35426;30.698;104.050;2023-09-30T05:55:30;37.03;;;21.67;;
17858;SDS011;35426;30.698;104.050;2023-09-30T05:58:04;33.65;;;20.73;;
17858;SDS011;35426;30.698;104.050;2023-09-30T06:00:39;38.30;;;21.02;;
17858;SDS011;35426;30.698;104.050;2023-09-30T06:03:17;36.25;;;19.65;;
17858;SDS011;35426;30.698;104.050;2023-09-30T06:05:51;30.05;;;19.27;;
17858;SDS011;35426;30.698;104.050;2023-09-30T06:08:25;32.75;;;19.27;;
17858;SDS011;35426;30.698;104.050;2023-09-30T06:11:01;33.65;;;20.75;;
17858;SDS011;35426;30.698;104.050;2023-09-30T06:13:35;31.13;;;20.15;;
17858;SDS011;35426;30.698;104.050;2023-09-30T06:16:11;30.42;;;18.88;;
17858;SDS011;35426;30.698;104.050;2023-09-30T06:18:47;32.22;;;20.25;;
17858;SDS011;35426;30.698;104.050;2023-09-30T06:21:23;29.20;;;19.80;;
17858;SDS011;35426;30.698;104.050;2023-09-30T06:23:59;30.30;;;20.05;;
17858;SDS011;35426;30.698;104.050;2023-09-30T06:26:34;35.42;;;20.85;;
17858;SDS011;35426;30.698;104.050;2023-09-30T06:29:08;33.75;;;19.50;;
17858;SDS011;35426;30.698;104.050;2023-09-30T06:31:43;26.67;;;17.17;;
17858;SDS011;35426;30.698;104.050;2023-09-30T06:34:19;29.67;;;18.52;;
17858;SDS011;35426;30.698;104.050;2023-09-30T06:36:53;31.42;;;17.52;;
17858;SDS011;35426;30.698;104.050;2023-09-30T06:39:28;26.75;;;17.40;;
17858;SDS011;35426;30.698;104.050;2023-09-30T06:42:03;28.15;;;16.73;;
17858;SDS011;35426;30.698;104.050;2023-09-30T06:44:37;25.58;;;17.15;;
17858;SDS011;35426;30.698;104.050;2023-09-30T06:47:12;29.40;;;16.98;;
17858;SDS011;35426;30.698;104.050;2023-09-30T06:49:48;30.13;;;17.55;;
17858;SDS011;35426;30.698;104.050;2023-09-30T06:52:23;27.20;;;18.55;;
17858;SDS011;35426;30.698;104.050;2023-09-30T06:54:57;25.33;;;16.80;;
17858;SDS011;35426;30.698;104.050;2023-09-30T06:57:32;28.48;;;16.98;;
17858;SDS011;35426;30.698;104.050;2023-09-30T07:00:06;27.05;;;17.08;;
17858;SDS011;35426;30.698;104.050;2023-09-30T07:02:42;29.50;;;17.33;;
17858;SDS011;35426;30.698;104.050;2023-09-30T07:05:19;27.08;;;17.67;;
17858;SDS011;35426;30.698;104.050;2023-09-30T07:07:53;26.55;;;16.38;;
17858;SDS011;35426;30.698;104.050;2023-09-30T07:10:29;36.30;;;18.65;;
17858;SDS011;35426;30.698;104.050;2023-09-30T07:13:04;32.75;;;19.48;;
17858;SDS011;35426;30.698;104.050;2023-09-30T07:15:38;29.08;;;18.35;;
17858;SDS011;35426;30.698;104.050;2023-09-30T07:18:12;29.77;;;17.23;;
17858;SDS011;35426;30.698;104.050;2023-09-30T07:20:52;24.77;;;16.42;;
17858;SDS011;35426;30.698;104.050;2023-09-30T07:23:30;35.83;;;19.27;;
17858;SDS011;35426;30.698;104.050;2023-09-30T07:26:04;32.83;;;19.30;;
17858;SDS011;35426;30.698;104.050;2023-09-30T07:28:38;29.77;;;17.08;;
17858;SDS011;35426;30.698;104.050;2023-09-30T07:31:12;34.20;;;19.45;;
17858;SDS011;35426;30.698;104.050;2023-09-30T07:33:47;32.03;;;17.77;;
17858;SDS011;35426;30.698;104.050;2023-09-30T07:36:26;27.30;;;17.25;;
17858;SDS011;35426;30.698;104.050;2023-09-30T07:39:00;25.65;;;16.73;;
17858;SDS011;35426;30.698;104.050;2023-09-30T07:41:37;34.58;;;16.83;;
17858;SDS011;35426;30.698;104.050;2023-09-30T07:44:15;31.13;;;17.63;;
17858;SDS011;35426;30.698;104.050;2023-09-30T07:46:50;29.70;;;16.58;;
17858;SDS011;35426;30.698;104.050;2023-09-30T07:49:24;26.30;;;16.80;;
17858;SDS011;35426;30.698;104.050;2023-09-30T07:52:00;26.83;;;15.35;;
17858;SDS011;35426;30.698;104.050;2023-09-30T07:54:37;20.70;;;14.77;;
17858;SDS011;35426;30.698;104.050;2023-09-30T07:57:11;24.63;;;15.55;;
17858;SDS011;35426;30.698;104.050;2023-09-30T07:59:45;25.38;;;15.02;;
17858;SDS011;35426;30.698;104.050;2023-09-30T08:02:20;25.87;;;15.03;;
17858;SDS011;35426;30.698;104.050;2023-09-30T08:04:58;24.55;;;15.55;;
17858;SDS011;35426;30.698;104.050;2023-09-30T08:07:34;27.77;;;16.60;;
17858;SDS011;35426;30.698;104.050;2023-09-30T08:10:09;26.02;;;16.00;;
17858;SDS011;35426;30.698;104.050;2023-09-30T08:12:47;27.43;;;17.30;;
17858;SDS011;35426;30.698;104.050;2023-09-30T08:15:21;30.20;;;17.40;;
17858;SDS011;35426;30.698;104.050;2023-09-30T08:17:55;23.67;;;16.47;;
17858;SDS011;35426;30.698;104.050;2023-09-30T08:20:31;25.93;;;15.87;;
17858;SDS011;35426;30.698;104.050;2023-09-30T08:23:09;25.03;;;16.80;;
17858;SDS011;35426;30.698;104.050;2023-09-30T08:25:43;26.00;;;16.60;;
17858;SDS011;35426;30.698;104.050;2023-09-30T08:28:17;28.70;;;16.60;;
17858;SDS011;35426;30.698;104.050;2023-09-30T08:30:52;27.40;;;16.27;;
17858;SDS011;35426;30.698;104.050;2023-09-30T08:33:29;25.30;;;16.30;;
17858;SDS011;35426;30.698;104.050;2023-09-30T08:36:05;25.57;;;15.70;;
17858;SDS011;35426;30.698;104.050;2023-09-30T08:38:44;25.80;;;15.57;;
17858;SDS011;35426;30.698;104.050;2023-09-30T08:41:24;31.07;;;15.00;;
17858;SDS011;35426;30.698;104.050;2023-09-30T08:44:05;24.43;;;15.60;;
17858;SDS011;35426;30.698;104.050;2023-09-30T08:46:41;26.70;;;15.40;;
17858;SDS011;35426;30.698;104.050;2023-09-30T08:49:17;22.53;;;15.13;;
17858;SDS011;35426;30.698;104.050;2023-09-30T08:51:53;23.90;;;14.97;;
17858;SDS011;35426;30.698;104.050;2023-09-30T08:54:33;30.30;;;14.97;;
17858;SDS011;35426;30.698;104.050;2023-09-30T08:57:08;20.03;;;14.40;;
17858;SDS011;35426;30.698;104.050;2023-09-30T08:59:45;26.97;;;14.60;;
17858;SDS011;35426;30.698;104.050;2023-09-30T09:02:21;25.67;;;14.97;;
17858;SDS011;35426;30.698;104.050;2023-09-30T09:04:58;23.00;;;15.07;;
17858;SDS011;35426;30.698;104.050;2023-09-30T09:07:32;29.63;;;17.63;;
17858;SDS011;35426;30.698;104.050;2023-09-30T09:10:09;27.70;;;16.17;;
17858;SDS011;35426;30.698;104.050;2023-09-30T09:12:44;25.90;;;15.47;;
17858;SDS011;35426;30.698;104.050;2023-09-30T09:15:28;28.57;;;15.60;;
17858;SDS011;35426;30.698;104.050;2023-09-30T09:18:05;28.20;;;15.60;;
17858;SDS011;35426;30.698;104.050;2023-09-30T09:20:40;26.00;;;15.90;;
17858;SDS011;35426;30.698;104.050;2023-09-30T09:23:15;24.03;;;15.67;;
17858;SDS011;35426;30.698;104.050;2023-09-30T09:25:52;24.93;;;15.90;;
17858;SDS011;35426;30.698;104.050;2023-09-30T09:28:33;23.97;;;15.83;;
17858;SDS011;35426;30.698;104.050;2023-09-30T09:31:21;67.13;;;36.33;;
17858;SDS011;35426;30.698;104.050;2023-09-30T09:33:55;65.60;;;40.03;;
17858;SDS011;35426;30.698;104.050;2023-09-30T09:36:38;64.63;;;38.97;;
17858;SDS011;35426;30.698;104.050;2023-09-30T09:39:13;69.00;;;40.10;;
17858;SDS011;35426;30.698;104.050;2023-09-30T09:41:52;71.87;;;41.07;;
17858;SDS011;35426;30.698;104.050;2023-09-30T09:44:31;74.43;;;43.03;;
17858;SDS011;35426;30.698;104.050;2023-09-30T09:47:08;67.47;;;41.20;;
17858;SDS011;35426;30.698;104.050;2023-09-30T09:49:42;73.00;;;42.57;;
17858;SDS011;35426;30.698;104.050;2023-09-30T09:52:17;73.40;;;42.97;;
17858;SDS011;35426;30.698;104.050;2023-09-30T09:54:52;77.93;;;42.67;;
17858;SDS011;35426;30.698;104.050;2023-09-30T09:57:30;73.10;;;41.90;;
17858;SDS011;35426;30.698;104.050;2023-09-30T10:00:06;77.30;;;42.57;;
17858;SDS011;35426;30.698;104.050;2023-09-30T10:02:44;76.37;;;42.63;;
17858;SDS011;35426;30.698;104.050;2023-09-30T10:05:20;70.77;;;41.37;;
17858;SDS011;35426;30.698;104.050;2023-09-30T10:08:01;75.47;;;42.40;;
17858;SDS011;35426;30.698;104.050;2023-09-30T10:10:38;71.23;;;41.23;;
17858;SDS011;35426;30.698;104.050;2023-09-30T10:19:24;67.00;;;38.50;;
17858;SDS011;35426;30.698;104.050;2023-09-30T10:24:56;70.87;;;39.47;;
17858;SDS011;35426;30.698;104.050;2023-09-30T10:27:31;66.50;;;39.17;;
17858;SDS011;35426;30.698;104.050;2023-09-30T10:30:11;74.13;;;39.77;;
17858;SDS011;35426;30.698;104.050;2023-09-30T10:35:48;71.97;;;37.30;;
17858;SDS011;35426;30.698;104.050;2023-09-30T10:38:38;60.70;;;36.70;;
17858;SDS011;35426;30.698;104.050;2023-09-30T10:41:14;71.07;;;37.03;;
17858;SDS011;35426;30.698;104.050;2023-09-30T10:44:35;61.27;;;36.60;;
17858;SDS011;35426;30.698;104.050;2023-09-30T10:53:26;60.83;;;33.77;;
17858;SDS011;35426;30.698;104.050;2023-09-30T10:56:00;58.20;;;33.57;;
17858;SDS011;35426;30.698;104.050;2023-09-30T10:58:44;60.20;;;33.57;;
17858;SDS011;35426;30.698;104.050;2023-09-30T11:01:19;62.80;;;34.27;;
17858;SDS011;35426;30.698;104.050;2023-09-30T11:03:59;57.97;;;31.77;;
17858;SDS011;35426;30.698;104.050;2023-09-30T11:06:39;64.43;;;34.63;;
17858;SDS011;35426;30.698;104.050;2023-09-30T11:09:17;58.97;;;33.80;;
17858;SDS011;35426;30.698;104.050;2023-09-30T11:11:52;66.03;;;33.53;;
17858;SDS011;35426;30.698;104.050;2023-09-30T11:14:29;60.77;;;34.20;;
17858;SDS011;35426;30.698;104.050;2023-09-30T11:17:04;64.03;;;33.90;;
17858;SDS011;35426;30.698;104.050;2023-09-30T11:19:46;69.63;;;34.23;;
17858;SDS011;35426;30.698;104.050;2023-09-30T11:22:22;64.17;;;34.93;;
17858;SDS011;35426;30.698;104.050;2023-09-30T11:24:59;60.83;;;34.90;;
17858;SDS011;35426;30.698;104.050;2023-09-30T11:27:34;62.97;;;35.10;;
17858;SDS011;35426;30.698;104.050;2023-09-30T11:30:08;61.87;;;32.87;;
17858;SDS011;35426;30.698;104.050;2023-09-30T11:32:43;62.03;;;33.90;;
17858;SDS011;35426;30.698;104.050;2023-09-30T11:35:27;67.67;;;35.17;;
17858;SDS011;35426;30.698;104.050;2023-09-30T11:38:02;70.53;;;35.27;;
17858;SDS011;35426;30.698;104.050;2023-09-30T11:40:38;60.27;;;35.10;;
17858;SDS011;35426;30.698;104.050;2023-09-30T11:43:13;66.30;;;35.83;;
17858;SDS011;35426;30.698;104.050;2023-09-30T11:45:47;65.83;;;35.33;;
17858;SDS011;35426;30.698;104.050;2023-09-30T11:48:21;62.03;;;34.33;;
17858;SDS011;35426;30.698;104.050;2023-09-30T11:50:55;66.07;;;34.80;;
17858;SDS011;35426;30.698;104.050;2023-09-30T11:53:38;62.90;;;34.53;;
17858;SDS011;35426;30.698;104.050;2023-09-30T11:56:15;66.10;;;35.50;;
17858;SDS011;35426;30.698;104.050;2023-09-30T11:58:49;66.03;;;36.20;;
17858;SDS011;35426;30.698;104.050;2023-09-30T12:01:23;67.70;;;35.23;;
17858;SDS011;35426;30.698;104.050;2023-09-30T12:04:01;70.63;;;38.43;;
17858;SDS011;35426;30.698;104.050;2023-09-30T12:06:36;76.60;;;39.87;;
17858;SDS011;35426;30.698;104.050;2023-09-30T12:09:10;70.57;;;37.53;;
17858;SDS011;35426;30.698;104.050;2023-09-30T12:11:48;76.17;;;39.97;;
17858;SDS011;35426;30.698;104.050;2023-09-30T12:14:24;81.13;;;41.90;;
17858;SDS011;35426;30.698;104.050;2023-09-30T12:17:00;86.00;;;39.87;;
17858;SDS011;35426;30.698;104.050;2023-09-30T12:19:34;75.90;;;40.53;;
17858;SDS011;35426;30.698;104.050;2023-09-30T12:22:08;76.93;;;41.27;;
17858;SDS011;35426;30.698;104.050;2023-09-30T12:24:43;82.67;;;41.93;;
17858;SDS011;35426;30.698;104.050;2023-09-30T12:27:19;74.60;;;41.30;;
17858;SDS011;35426;30.698;104.050;2023-09-30T12:29:54;80.70;;;41.40;;
17858;SDS011;35426;30.698;104.050;2023-09-30T12:32:30;81.47;;;43.50;;
17858;SDS011;35426;30.698;104.050;2023-09-30T12:35:05;76.17;;;41.77;;
17858;SDS011;35426;30.698;104.050;2023-09-30T12:37:40;79.40;;;41.97;;
17858;SDS011;35426;30.698;104.050;2023-09-30T12:40:15;84.13;;;44.30;;
17858;SDS011;35426;30.698;104.050;2023-09-30T12:42:54;80.93;;;43.70;;
17858;SDS011;35426;30.698;104.050;2023-09-30T12:45:29;79.33;;;44.17;;
17858;SDS011;35426;30.698;104.050;2023-09-30T12:48:05;88.87;;;45.00;;
17858;SDS011;35426;30.698;104.050;2023-09-30T12:50:40;91.33;;;48.10;;
17858;SDS011;35426;30.698;104.050;2023-09-30T12:53:16;90.13;;;48.33;;
17858;SDS011;35426;30.698;104.050;2023-09-30T12:55:51;95.97;;;50.67;;
17858;SDS011;35426;30.698;104.050;2023-09-30T12:58:27;89.80;;;48.70;;
17858;SDS011;35426;30.698;104.050;2023-09-30T13:01:01;93.83;;;49.47;;
17858;SDS011;35426;30.698;104.050;2023-09-30T13:03:49;92.80;;;48.37;;
17858;SDS011;35426;30.698;104.050;2023-09-30T13:06:24;90.13;;;49.77;;
17858;SDS011;35426;30.698;104.050;2023-09-30T13:08:58;96.43;;;51.77;;
17858;SDS011;35426;30.698;104.050;2023-09-30T13:11:33;103.67;;;53.03;;
17858;SDS011;35426;30.698;104.050;2023-09-30T13:14:09;98.50;;;52.67;;
17858;SDS011;35426;30.698;104.050;2023-09-30T13:16:44;96.87;;;53.63;;
17858;SDS011;35426;30.698;104.050;2023-09-30T13:19:18;108.00;;;54.50;;
17858;SDS011;35426;30.698;104.050;2023-09-30T13:21:52;105.63;;;55.40;;
17858;SDS011;35426;30.698;104.050;2023-09-30T13:24:26;97.67;;;53.10;;
17858;SDS011;35426;30.698;104.050;2023-09-30T13:27:00;98.27;;;53.57;;
17858;SDS011;35426;30.698;104.050;2023-09-30T13:29:36;98.33;;;54.33;;
17858;SDS011;35426;30.698;104.050;2023-09-30T13:32:11;97.37;;;51.20;;
17858;SDS011;35426;30.698;104.050;2023-09-30T13:34:49;99.60;;;52.17;;
17858;SDS011;35426;30.698;104.050;2023-09-30T13:37:24;96.97;;;51.60;;
17858;SDS011;35426;30.698;104.050;2023-09-30T13:40:03;98.77;;;51.77;;
17858;SDS011;35426;30.698;104.050;2023-09-30T13:42:41;103.87;;;54.17;;
17858;SDS011;35426;30.698;104.050;2023-09-30T13:45:19;99.63;;;53.57;;
17858;SDS011;35426;30.698;104.050;2023-09-30T13:47:53;102.53;;;55.47;;
17858;SDS011;35426;30.698;104.050;2023-09-30T13:50:27;108.83;;;55.33;;
17858;SDS011;35426;30.698;104.050;2023-09-30T13:53:01;105.07;;;54.83;;
17858;SDS011;35426;30.698;104.050;2023-09-30T13:55:37;103.07;;;56.73;;
17858;SDS011;35426;30.698;104.050;2023-09-30T13:58:12;115.07;;;56.63;;
17858;SDS011;35426;30.698;104.050;2023-09-30T14:00:49;110.33;;;57.30;;
17858;SDS011;35426;30.698;104.050;2023-09-30T14:03:29;109.17;;;54.67;;
17858;SDS011;35426;30.698;104.050;2023-09-30T14:06:03;102.20;;;53.60;;
17858;SDS011;35426;30.698;104.050;2023-09-30T14:08:43;111.23;;;54.17;;
17858;SDS011;35426;30.698;104.050;2023-09-30T14:11:18;104.23;;;53.80;;
17858;SDS011;35426;30.698;104.050;2023-09-30T14:13:53;104.87;;;52.43;;
17858;SDS011;35426;30.698;104.050;2023-09-30T14:16:30;101.30;;;53.63;;
17858;SDS011;35426;30.698;104.050;2023-09-30T14:19:04;100.20;;;53.23;;
17858;SDS011;35426;30.698;104.050;2023-09-30T14:21:39;107.50;;;55.20;;
17858;SDS011;35426;30.698;104.050;2023-09-30T14:24:14;103.07;;;53.20;;
17858;SDS011;35426;30.698;104.050;2023-09-30T14:26:49;106.20;;;55.70;;
17858;SDS011;35426;30.698;104.050;2023-09-30T14:29:25;100.13;;;54.73;;
17858;SDS011;35426;30.698;104.050;2023-09-30T14:32:02;107.60;;;55.00;;
17858;SDS011;35426;30.698;104.050;2023-09-30T14:34:37;108.20;;;55.70;;
17858;SDS011;35426;30.698;104.050;2023-09-30T14:37:14;109.80;;;58.63;;
17858;SDS011;35426;30.698;104.050;2023-09-30T14:39:51;108.80;;;55.00;;
17858;SDS011;35426;30.698;104.050;2023-09-30T14:42:25;105.33;;;56.97;;
17858;SDS011;35426;30.698;104.050;2023-09-30T14:44:59;109.20;;;56.10;;
17858;SDS011;35426;30.698;104.050;2023-09-30T14:47:35;103.73;;;57.63;;
17858;SDS011;35426;30.698;104.050;2023-09-30T14:50:09;103.67;;;55.23;;
17858;SDS011;35426;30.698;104.050;2023-09-30T14:52:44;107.13;;;57.07;;
17858;SDS011;35426;30.698;104.050;2023-09-30T14:55:19;111.40;;;57.17;;
17858;SDS011;35426;30.698;104.050;2023-09-30T14:57:53;107.83;;;57.80;;
17858;SDS011;35426;30.698;104.050;2023-09-30T15:00:28;112.93;;;60.07;;
17858;SDS011;35426;30.698;104.050;2023-09-30T15:03:04;109.53;;;58.13;;